Time;durP1;ratioP1;P1;durP2;ratioP2;P2;SDS_P1;SDS_P2;PMS_P1;PMS_P2;Temp;Humidity;BMP_temperature;BMP_pressure;BME280_temperature;BME280_humidity;BME280_pressure;Samples;Min_cycle;Max_cycle;Signal;HPM_P1;HPM_P2
2024/01/20 00:01:37;;;;;;;4.45;2.50;;;;;;;;;;5067795;28;20055;-62
2024/01/20 00:04:03;;;;;;;8.65;2.78;;;;;;;;;;5070383;28;20037;-62
2024/01/20 00:06:29;;;;;;;6.50;2.53;;;;;;;;;;5071420;28;20046;-62
2024/01/20 00:08:55;;;;;;;7.32;3.35;;;;;;;;;;5070854;28;20036;-62
2024/01/20 00:11:22;;;;;;;6.70;3.15;;;;;;;;;;5070325;28;20040;-62
2024/01/20 00:13:48;;;;;;;9.73;2.83;;;;;;;;;;5044149;28;20045;-62
2024/01/20 00:16:14;;;;;;;8.90;2.75;;;;;;;;;;5070750;28;20215;-63
2024/01/20 00:18:40;;;;;;;6.95;2.88;;;;;;;;;;5068609;28;20051;-62
2024/01/20 00:21:06;;;;;;;9.65;2.72;;;;;;;;;;5070483;28;20428;-62
2024/01/20 00:23:32;;;;;;;7.50;2.90;;;;;;;;;;5071318;28;20413;-62
2024/01/20 00:25:58;;;;;;;14.70;3.67;;;;;;;;;;5069741;28;20084;-63
2024/01/20 00:28:25;;;;;;;6.32;3.22;;;;;;;;;;5054576;28;20039;-63
2024/01/20 00:30:51;;;;;;;6.80;3.28;;;;;;;;;;5058816;28;20541;-63
2024/01/20 00:33:17;;;;;;;8.70;3.15;;;;;;;;;;5068809;28;20056;-62
2024/01/20 00:35:44;;;;;;;6.85;2.80;;;;;;;;;;5052856;28;20217;-62
2024/01/20 00:38:11;;;;;;;4.45;2.53;;;;;;;;;;5066947;28;20033;-63
2024/01/20 00:40:37;;;;;;;5.70;3.47;;;;;;;;;;5063862;28;20052;-62
2024/01/20 00:43:03;;;;;;;6.63;2.80;;;;;;;;;;5069517;28;20044;-63
2024/01/20 00:45:29;;;;;;;5.70;2.58;;;;;;;;;;5032998;28;20134;-62
2024/01/20 00:47:55;;;;;;;8.52;2.90;;;;;;;;;;5067775;28;20082;-63
2024/01/20 00:50:22;;;;;;;8.05;2.72;;;;;;;;;;5066498;28;20600;-62
2024/01/20 00:52:48;;;;;;;9.68;2.97;;;;;;;;;;5046074;28;20520;-63
2024/01/20 00:55:14;;;;;;;4.90;2.70;;;;;;;;;;5063777;28;20087;-62
2024/01/20 00:57:40;;;;;;;6.63;3.30;;;;;;;;;;5062765;28;20032;-63
2024/01/20 01:00:09;;;;;;;9.02;3.63;;;;;;;;;;5053883;28;20489;-63
2024/01/20 01:02:38;;;;;;;11.00;2.72;;;;;;;;;;5057684;28;20115;-62
2024/01/20 01:05:05;;;;;;;5.85;3.42;;;;;;;;;;5058288;28;20542;-63
2024/01/20 01:07:32;;;;;;;8.20;2.97;;;;;;;;;;5062057;28;20107;-62
2024/01/20 01:09:58;;;;;;;7.38;2.90;;;;;;;;;;5058603;28;20046;-63
2024/01/20 01:12:24;;;;;;;12.60;3.10;;;;;;;;;;5065849;28;20321;-63
2024/01/20 01:14:50;;;;;;;7.75;2.63;;;;;;;;;;5060612;28;20404;-63
2024/01/20 01:17:17;;;;;;;4.93;2.40;;;;;;;;;;5055151;28;20052;-62
2024/01/20 01:19:43;;;;;;;4.15;3.42;;;;;;;;;;5032279;28;20041;-63
2024/01/20 01:22:09;;;;;;;4.18;2.85;;;;;;;;;;5057791;28;20040;-63
2024/01/20 01:24:37;;;;;;;6.60;2.97;;;;;;;;;;5053314;28;20028;-63
2024/01/20 01:27:04;;;;;;;5.13;2.35;;;;;;;;;;5061739;28;20465;-62
2024/01/20 01:29:30;;;;;;;5.13;3.03;;;;;;;;;;5034134;28;20048;-62
2024/01/20 01:31:56;;;;;;;8.48;2.88;;;;;;;;;;5064367;28;20044;-62
2024/01/20 01:34:22;;;;;;;14.30;3.05;;;;;;;;;;5052028;28;20500;-62
2024/01/20 01:36:49;;;;;;;5.97;2.67;;;;;;;;;;5061143;28;20044;-63
2024/01/20 01:39:18;;;;;;;4.57;2.15;;;;;;;;;;5058158;28;20119;-62
2024/01/20 01:41:45;;;;;;;5.38;3.08;;;;;;;;;;5063087;28;20518;-63
2024/01/20 01:44:11;;;;;;;11.30;3.15;;;;;;;;;;5061141;28;20151;-62
2024/01/20 01:46:37;;;;;;;6.55;2.92;;;;;;;;;;5056596;28;20060;-63
2024/01/20 01:49:04;;;;;;;5.53;2.40;;;;;;;;;;5065122;28;20307;-63
2024/01/20 01:51:31;;;;;;;12.73;3.85;;;;;;;;;;5057414;28;20118;-62
2024/01/20 01:53:58;;;;;;;7.00;2.90;;;;;;;;;;5056561;28;20135;-63
2024/01/20 01:56:25;;;;;;;12.45;3.53;;;;;;;;;;5056821;28;20036;-63
2024/01/20 01:58:51;;;;;;;8.45;3.25;;;;;;;;;;5051650;28;20045;-62
2024/01/20 02:01:17;;;;;;;7.47;2.50;;;;;;;;;;5057284;28;20041;-62
2024/01/20 02:03:43;;;;;;;9.18;2.80;;;;;;;;;;5064762;28;20444;-63
2024/01/20 02:06:09;;;;;;;7.07;2.65;;;;;;;;;;5069391;28;20033;-61
2024/01/20 02:08:36;;;;;;;6.28;2.70;;;;;;;;;;5052923;28;20040;-62
2024/01/20 02:11:02;;;;;;;6.43;2.70;;;;;;;;;;5052519;28;20099;-63
2024/01/20 02:13:28;;;;;;;7.70;2.97;;;;;;;;;;5062565;28;20044;-62
2024/01/20 02:15:55;;;;;;;5.15;2.67;;;;;;;;;;5050201;28;20040;-62
2024/01/20 02:18:24;;;;;;;7.97;3.17;;;;;;;;;;5060474;28;20033;-63
2024/01/20 02:20:53;;;;;;;8.07;3.28;;;;;;;;;;5067191;28;20630;-62
2024/01/20 02:23:19;;;;;;;5.85;2.30;;;;;;;;;;5068723;28;20032;-63
2024/01/20 02:25:46;;;;;;;7.68;3.05;;;;;;;;;;5060256;28;20067;-63
2024/01/20 02:28:12;;;;;;;7.65;2.38;;;;;;;;;;5060491;28;20070;-64
2024/01/20 02:30:38;;;;;;;5.57;2.92;;;;;;;;;;5060428;28;20489;-63
2024/01/20 02:33:04;;;;;;;5.85;2.83;;;;;;;;;;5059985;28;20056;-63
2024/01/20 02:35:30;;;;;;;7.78;2.50;;;;;;;;;;5062419;28;20454;-63
2024/01/20 02:37:57;;;;;;;10.93;3.75;;;;;;;;;;5063290;28;20545;-63
2024/01/20 02:40:23;;;;;;;7.03;2.83;;;;;;;;;;5059803;28;20076;-63
2024/01/20 02:42:49;;;;;;;5.40;2.60;;;;;;;;;;5065254;28;20488;-63
2024/01/20 02:45:15;;;;;;;7.40;3.45;;;;;;;;;;5062186;28;20120;-63
2024/01/20 02:47:41;;;;;;;3.08;2.33;;;;;;;;;;5065312;28;20251;-62
2024/01/20 02:50:08;;;;;;;4.95;2.72;;;;;;;;;;5040291;28;20066;-63
2024/01/20 02:52:34;;;;;;;9.68;2.75;;;;;;;;;;5052910;28;20037;-63
2024/01/20 02:55:00;;;;;;;5.13;2.80;;;;;;;;;;5061752;28;20661;-63
2024/01/20 02:57:26;;;;;;;12.40;3.13;;;;;;;;;;5061449;28;20048;-63
2024/01/20 02:59:52;;;;;;;9.93;3.75;;;;;;;;;;5064061;28;20040;-64
2024/01/20 03:02:18;;;;;;;4.20;2.33;;;;;;;;;;5066813;28;20075;-64
2024/01/20 03:04:44;;;;;;;5.05;2.55;;;;;;;;;;5066816;28;20028;-64
2024/01/20 03:07:10;;;;;;;6.28;3.65;;;;;;;;;;5056466;28;20527;-65
2024/01/20 03:09:37;;;;;;;5.65;2.70;;;;;;;;;;5068723;28;20381;-63
2024/01/20 03:12:03;;;;;;;7.15;3.53;;;;;;;;;;5041661;28;20037;-63
2024/01/20 03:14:29;;;;;;;6.65;2.88;;;;;;;;;;5067006;28;20055;-64
2024/01/20 03:16:55;;;;;;;6.13;3.22;;;;;;;;;;5056644;28;20406;-64
2024/01/20 03:19:21;;;;;;;7.50;3.20;;;;;;;;;;5067033;28;20450;-63
2024/01/20 03:21:48;;;;;;;7.82;3.08;;;;;;;;;;5068452;28;20048;-63
2024/01/20 03:24:17;;;;;;;7.78;3.78;;;;;;;;;;5067948;28;20040;-63
2024/01/20 03:26:47;;;;;;;5.97;3.33;;;;;;;;;;5055701;28;20043;-63
2024/01/20 03:29:13;;;;;;;7.45;4.38;;;;;;;;;;5067825;28;20097;-63
2024/01/20 03:31:39;;;;;;;10.85;4.18;;;;;;;;;;5062053;28;20124;-63
2024/01/20 03:34:05;;;;;;;9.10;4.68;;;;;;;;;;5067467;28;20056;-63
2024/01/20 03:36:32;;;;;;;7.65;4.93;;;;;;;;;;5067294;28;20072;-63
2024/01/20 03:38:58;;;;;;;8.57;4.72;;;;;;;;;;5061658;28;20360;-63
2024/01/20 03:41:24;;;;;;;9.55;5.28;;;;;;;;;;5065510;28;20098;-63
2024/01/20 03:43:50;;;;;;;8.32;5.47;;;;;;;;;;5068095;28;20089;-63
2024/01/20 03:46:17;;;;;;;10.98;5.70;;;;;;;;;;5065344;28;20092;-66
2024/01/20 03:48:43;;;;;;;7.63;5.43;;;;;;;;;;5066028;28;20065;-63
2024/01/20 03:51:09;;;;;;;7.80;5.53;;;;;;;;;;5063887;28;20394;-63
2024/01/20 03:53:36;;;;;;;7.10;5.60;;;;;;;;;;5065308;28;20049;-63
2024/01/20 03:56:02;;;;;;;8.98;6.95;;;;;;;;;;5058375;28;20074;-63
2024/01/20 03:58:28;;;;;;;7.35;5.50;;;;;;;;;;5057764;28;20382;-63
2024/01/20 04:00:54;;;;;;;13.05;7.28;;;;;;;;;;5046209;28;20411;-63
2024/01/20 04:03:20;;;;;;;13.48;6.45;;;;;;;;;;5058297;28;20532;-63
2024/01/20 04:05:47;;;;;;;10.27;6.97;;;;;;;;;;5058368;28;20041;-63
2024/01/20 04:08:13;;;;;;;8.82;6.20;;;;;;;;;;5067959;28;20040;-63
2024/01/20 04:10:40;;;;;;;9.95;7.00;;;;;;;;;;5065508;28;20047;-63
2024/01/20 04:13:06;;;;;;;11.02;7.05;;;;;;;;;;5066929;28;20043;-63
2024/01/20 04:15:32;;;;;;;11.48;7.68;;;;;;;;;;5077484;28;20083;-63
2024/01/20 04:17:58;;;;;;;13.05;6.80;;;;;;;;;;5066276;28;20051;-64
2024/01/20 04:20:24;;;;;;;11.43;6.78;;;;;;;;;;5066091;28;20120;-63
2024/01/20 04:22:51;;;;;;;10.70;7.28;;;;;;;;;;5066483;28;20037;-63
2024/01/20 04:25:17;;;;;;;16.15;7.47;;;;;;;;;;5049744;28;20521;-63
2024/01/20 04:27:44;;;;;;;9.57;7.38;;;;;;;;;;5052087;28;20044;-64
2024/01/20 04:30:11;;;;;;;10.35;7.82;;;;;;;;;;5060746;28;20452;-63
2024/01/20 04:32:37;;;;;;;12.95;7.35;;;;;;;;;;5051163;28;20041;-63
2024/01/20 04:35:04;;;;;;;12.13;7.65;;;;;;;;;;5065824;28;20052;-63
2024/01/20 04:37:30;;;;;;;13.65;8.50;;;;;;;;;;5063674;28;20045;-63
2024/01/20 04:39:56;;;;;;;12.10;8.18;;;;;;;;;;5069680;28;20033;-63
2024/01/20 04:42:23;;;;;;;15.50;9.75;;;;;;;;;;5069012;28;20522;-63
2024/01/20 04:44:49;;;;;;;14.07;8.82;;;;;;;;;;5069584;28;20028;-63
2024/01/20 04:47:15;;;;;;;12.93;9.02;;;;;;;;;;5069273;28;20044;-64
2024/01/20 04:49:41;;;;;;;15.85;9.82;;;;;;;;;;5065471;28;20036;-63
2024/01/20 04:52:07;;;;;;;12.02;9.13;;;;;;;;;;5069192;28;20143;-64
2024/01/20 04:54:34;;;;;;;12.93;9.35;;;;;;;;;;5047382;28;20127;-63
2024/01/20 04:57:00;;;;;;;15.00;9.73;;;;;;;;;;5067701;28;20040;-63
2024/01/20 04:59:26;;;;;;;13.65;9.95;;;;;;;;;;5060656;28;20040;-64
2024/01/20 05:01:52;;;;;;;14.27;11.15;;;;;;;;;;5066818;28;20044;-63
2024/01/20 05:04:18;;;;;;;15.20;10.32;;;;;;;;;;5040968;28;20040;-64
2024/01/20 05:06:45;;;;;;;15.10;11.40;;;;;;;;;;5072571;28;20098;-63
2024/01/20 05:09:12;;;;;;;12.57;10.57;;;;;;;;;;5059119;28;20028;-63
2024/01/20 05:11:38;;;;;;;14.93;9.50;;;;;;;;;;5067209;28;20040;-63
2024/01/20 05:14:04;;;;;;;15.05;9.82;;;;;;;;;;5070591;28;20135;-63
2024/01/20 05:16:31;;;;;;;15.43;10.38;;;;;;;;;;5054067;28;20040;-63
2024/01/20 05:18:57;;;;;;;12.77;10.32;;;;;;;;;;5058320;28;20143;-63
2024/01/20 05:21:23;;;;;;;16.30;10.77;;;;;;;;;;5062103;28;20386;-63
2024/01/20 05:23:49;;;;;;;13.98;10.63;;;;;;;;;;5060126;28;20060;-63
2024/01/20 05:26:15;;;;;;;12.90;10.27;;;;;;;;;;5056376;28;20131;-65
2024/01/20 05:28:41;;;;;;;13.18;9.13;;;;;;;;;;5050338;28;20042;-63
2024/01/20 05:31:08;;;;;;;17.42;11.32;;;;;;;;;;5058392;28;20262;-62
2024/01/20 05:33:34;;;;;;;17.30;11.85;;;;;;;;;;5070283;28;20599;-63
2024/01/20 05:36:00;;;;;;;14.77;9.38;;;;;;;;;;5060600;28;20448;-63
2024/01/20 05:38:32;;;;;;;20.67;11.70;;;;;;;;;;5068496;28;20043;-63
2024/01/20 05:40:58;;;;;;;17.15;10.05;;;;;;;;;;5057533;28;20359;-63
2024/01/20 05:43:24;;;;;;;15.85;10.65;;;;;;;;;;5062480;28;20064;-63
2024/01/20 05:45:50;;;;;;;16.15;11.77;;;;;;;;;;5056649;28;20118;-63
2024/01/20 05:48:16;;;;;;;17.58;11.68;;;;;;;;;;5057727;28;20094;-63
2024/01/20 05:50:42;;;;;;;16.15;11.05;;;;;;;;;;5063318;28;20045;-64
2024/01/20 05:53:08;;;;;;;15.20;11.02;;;;;;;;;;5054966;28;20119;-63
2024/01/20 05:55:34;;;;;;;17.42;11.57;;;;;;;;;;5062629;28;20438;-63
2024/01/20 05:58:01;;;;;;;16.88;10.93;;;;;;;;;;5069726;28;20047;-62
2024/01/20 06:00:27;;;;;;;18.85;11.57;;;;;;;;;;5053629;28;20045;-63
2024/01/20 06:02:53;;;;;;;16.33;11.93;;;;;;;;;;5067881;28;20040;-63
2024/01/20 06:05:19;;;;;;;19.45;11.25;;;;;;;;;;5066543;28;20060;-63
2024/01/20 06:07:45;;;;;;;19.77;13.10;;;;;;;;;;5067014;28;20055;-63
2024/01/20 06:10:12;;;;;;;22.83;13.43;;;;;;;;;;5065033;28;20120;-63
2024/01/20 06:12:38;;;;;;;19.08;12.05;;;;;;;;;;5066335;28;20044;-63
2024/01/20 06:15:04;;;;;;;19.67;13.57;;;;;;;;;;5065492;28;20048;-63
2024/01/20 06:17:30;;;;;;;19.10;12.63;;;;;;;;;;5056407;28;20684;-63
2024/01/20 06:19:56;;;;;;;19.77;12.15;;;;;;;;;;5061379;28;20045;-63
2024/01/20 06:22:23;;;;;;;21.38;12.65;;;;;;;;;;5068294;28;20040;-64
2024/01/20 06:24:49;;;;;;;20.42;12.95;;;;;;;;;;5068124;28;20040;-63
2024/01/20 06:27:15;;;;;;;17.83;12.55;;;;;;;;;;5065306;28;20378;-63
2024/01/20 06:29:41;;;;;;;20.77;12.60;;;;;;;;;;5048858;28;20040;-63
2024/01/20 06:32:08;;;;;;;17.42;12.10;;;;;;;;;;5057650;28;20051;-63
2024/01/20 06:34:34;;;;;;;23.92;11.48;;;;;;;;;;5063971;28;20059;-63
2024/01/20 06:37:01;;;;;;;19.17;13.27;;;;;;;;;;5066802;28;20493;-63
2024/01/20 06:39:27;;;;;;;21.10;12.93;;;;;;;;;;5062403;28;20059;-63
2024/01/20 06:41:53;;;;;;;18.02;12.20;;;;;;;;;;5059248;28;20477;-63
2024/01/20 06:44:22;;;;;;;22.33;12.43;;;;;;;;;;5064365;28;20109;-63
2024/01/20 06:46:48;;;;;;;21.45;14.00;;;;;;;;;;5048689;28;20093;-64
2024/01/20 06:49:14;;;;;;;20.10;14.27;;;;;;;;;;5061374;28;20046;-63
2024/01/20 06:51:43;;;;;;;20.73;13.93;;;;;;;;;;5049567;28;20508;-63
2024/01/20 06:54:09;;;;;;;25.13;13.30;;;;;;;;;;5076610;28;20048;-63
2024/01/20 06:56:35;;;;;;;19.98;12.75;;;;;;;;;;5049798;28;20048;-63
2024/01/20 06:59:01;;;;;;;22.40;13.23;;;;;;;;;;5050011;28;20501;-63
2024/01/20 07:01:27;;;;;;;21.95;13.85;;;;;;;;;;5052966;28;20580;-63
2024/01/20 07:03:53;;;;;;;24.27;12.13;;;;;;;;;;5057894;28;20087;-63
2024/01/20 07:06:26;;;;;;;22.67;13.48;;;;;;;;;;5057596;28;20612;-63
2024/01/20 07:08:54;;;;;;;20.42;13.35;;;;;;;;;;5059212;28;20044;-63
2024/01/20 07:11:21;;;;;;;23.25;14.23;;;;;;;;;;5048507;28;20044;-63
2024/01/20 07:13:47;;;;;;;25.48;13.43;;;;;;;;;;5055854;28;20040;-63
2024/01/20 07:16:14;;;;;;;22.88;14.60;;;;;;;;;;5056595;28;20481;-63
2024/01/20 07:18:41;;;;;;;21.92;15.27;;;;;;;;;;5052023;28;20037;-63
2024/01/20 07:21:07;;;;;;;31.70;15.93;;;;;;;;;;5067241;28;20036;-63
2024/01/20 07:23:34;;;;;;;23.50;14.05;;;;;;;;;;5049328;28;20471;-63
2024/01/20 07:26:00;;;;;;;22.40;14.18;;;;;;;;;;5053761;28;20045;-63
2024/01/20 07:28:26;;;;;;;23.70;15.02;;;;;;;;;;5066167;28;20502;-63
2024/01/20 07:30:53;;;;;;;24.80;15.20;;;;;;;;;;5043262;28;20670;-64
2024/01/20 07:33:19;;;;;;;22.73;14.02;;;;;;;;;;5046838;28;20056;-63
2024/01/20 07:35:47;;;;;;;24.52;13.55;;;;;;;;;;5060256;28;20099;-63
2024/01/20 07:38:16;;;;;;;26.20;14.98;;;;;;;;;;5058337;28;20044;-63
2024/01/20 07:40:42;;;;;;;23.13;14.73;;;;;;;;;;5063346;28;20036;-63
2024/01/20 07:43:08;;;;;;;26.77;15.95;;;;;;;;;;5057764;28;20090;-63
2024/01/20 07:45:35;;;;;;;27.50;12.98;;;;;;;;;;5060703;28;20056;-64
2024/01/20 07:48:01;;;;;;;25.10;16.02;;;;;;;;;;5055472;28;20525;-63
2024/01/20 07:50:28;;;;;;;24.63;16.20;;;;;;;;;;5057465;28;20045;-63
2024/01/20 07:52:55;;;;;;;25.17;16.23;;;;;;;;;;5053074;28;20080;-63
2024/01/20 07:55:21;;;;;;;26.67;16.48;;;;;;;;;;5093082;28;20112;-63
2024/01/20 07:57:47;;;;;;;21.95;15.50;;;;;;;;;;5050841;28;20127;-63
2024/01/20 08:00:13;;;;;;;26.42;16.05;;;;;;;;;;5061405;28;20098;-63
2024/01/20 08:02:39;;;;;;;22.58;14.95;;;;;;;;;;5056214;28;20120;-63
2024/01/20 08:05:06;;;;;;;25.58;16.20;;;;;;;;;;5064773;28;20036;-63
2024/01/20 08:07:32;;;;;;;20.95;14.20;;;;;;;;;;5057272;28;20088;-63
2024/01/20 08:09:59;;;;;;;21.67;14.75;;;;;;;;;;5041789;28;20382;-63
2024/01/20 08:12:25;;;;;;;25.52;16.42;;;;;;;;;;5069161;28;20044;-63
2024/01/20 08:14:51;;;;;;;24.23;15.50;;;;;;;;;;5066938;28;20176;-63
2024/01/20 08:17:18;;;;;;;29.65;16.38;;;;;;;;;;5062994;28;20059;-63
2024/01/20 08:19:45;;;;;;;25.58;15.20;;;;;;;;;;5056496;28;20049;-63
2024/01/20 08:22:12;;;;;;;29.17;15.77;;;;;;;;;;5059966;28;20040;-63
2024/01/20 08:24:38;;;;;;;28.45;17.75;;;;;;;;;;5067580;28;20410;-63
2024/01/20 08:27:05;;;;;;;29.27;17.08;;;;;;;;;;5060631;28;20040;-63
2024/01/20 08:29:31;;;;;;;26.85;16.27;;;;;;;;;;5066278;28;20056;-63
2024/01/20 08:31:57;;;;;;;31.52;18.40;;;;;;;;;;5047312;28;20051;-63
2024/01/20 08:34:23;;;;;;;30.38;15.75;;;;;;;;;;5050378;28;20056;-64
2024/01/20 08:36:49;;;;;;;26.10;15.93;;;;;;;;;;5065612;28;20040;-63
2024/01/20 08:39:18;;;;;;;27.08;16.95;;;;;;;;;;5062294;28;20056;-64
2024/01/20 08:41:45;;;;;;;26.98;16.80;;;;;;;;;;5054529;28;20187;-63
2024/01/20 08:44:11;;;;;;;27.67;16.15;;;;;;;;;;5064533;28;20071;-64
2024/01/20 08:46:37;;;;;;;29.80;16.23;;;;;;;;;;5058399;28;20542;-64
2024/01/20 08:49:03;;;;;;;29.55;17.15;;;;;;;;;;5053757;28;20048;-63
2024/01/20 08:51:29;;;;;;;23.50;15.35;;;;;;;;;;5059431;28;20417;-63
2024/01/20 08:53:56;;;;;;;30.13;16.02;;;;;;;;;;5060774;28;20123;-65
2024/01/20 08:56:22;;;;;;;25.92;15.63;;;;;;;;;;5059405;28;20047;-65
2024/01/20 08:58:49;;;;;;;22.17;14.68;;;;;;;;;;5058631;28;20332;-63
2024/01/20 09:01:17;;;;;;;31.95;16.20;;;;;;;;;;5058481;28;20337;-63
2024/01/20 09:03:43;;;;;;;24.52;15.55;;;;;;;;;;5054166;28;20465;-63
2024/01/20 09:06:12;;;;;;;24.00;16.25;;;;;;;;;;5058778;28;20455;-62
2024/01/20 09:08:38;;;;;;;22.48;14.75;;;;;;;;;;5061408;28;20173;-63
2024/01/20 09:11:04;;;;;;;30.15;16.80;;;;;;;;;;5056372;28;20040;-63
2024/01/20 09:13:30;;;;;;;25.40;15.90;;;;;;;;;;5064126;28;20052;-63
2024/01/20 09:15:56;;;;;;;26.15;16.45;;;;;;;;;;5058262;28;20052;-63
2024/01/20 09:18:22;;;;;;;24.63;16.13;;;;;;;;;;5059450;28;20044;-63
2024/01/20 09:20:48;;;;;;;24.83;13.90;;;;;;;;;;5052683;28;20125;-63
2024/01/20 09:23:14;;;;;;;29.58;15.90;;;;;;;;;;5071761;28;20143;-63
2024/01/20 09:25:41;;;;;;;21.95;15.80;;;;;;;;;;5055997;28;20493;-63
2024/01/20 09:28:07;;;;;;;27.63;15.40;;;;;;;;;;5046955;28;20040;-63
2024/01/20 09:30:35;;;;;;;24.70;15.68;;;;;;;;;;5055978;28;20036;-63
2024/01/20 09:33:04;;;;;;;26.20;14.25;;;;;;;;;;5065100;28;20063;-63
2024/01/20 09:35:31;;;;;;;24.88;15.05;;;;;;;;;;5058330;28;20356;-63
2024/01/20 09:37:57;;;;;;;27.90;15.50;;;;;;;;;;5044998;28;20048;-66
2024/01/20 09:40:23;;;;;;;28.13;15.55;;;;;;;;;;5058772;28;20439;-63
2024/01/20 09:42:50;;;;;;;23.38;15.68;;;;;;;;;;5076247;28;20037;-63
2024/01/20 09:45:16;;;;;;;21.55;14.70;;;;;;;;;;5066307;28;20037;-63
2024/01/20 09:47:42;;;;;;;21.75;13.95;;;;;;;;;;5029900;28;20055;-63
2024/01/20 09:50:09;;;;;;;23.60;14.52;;;;;;;;;;5063267;28;20047;-63
2024/01/20 09:52:40;;;;;;;23.92;13.77;;;;;;;;;;5072520;28;20178;-63
2024/01/20 09:55:13;;;;;;;25.92;14.57;;;;;;;;;;5056001;28;20048;-63
2024/01/20 09:57:40;;;;;;;23.20;14.50;;;;;;;;;;5060675;28;20182;-63
2024/01/20 10:00:08;;;;;;;22.45;13.57;;;;;;;;;;5057031;28;20441;-63
2024/01/20 10:02:35;;;;;;;22.23;13.13;;;;;;;;;;5063436;28;20246;-63
2024/01/20 10:05:04;;;;;;;26.23;16.15;;;;;;;;;;5058014;28;20040;-63
2024/01/20 10:07:30;;;;;;;24.40;14.77;;;;;;;;;;5058073;28;20127;-63
2024/01/20 10:09:57;;;;;;;25.67;14.82;;;;;;;;;;5061738;28;20107;-63
2024/01/20 10:12:23;;;;;;;20.30;13.45;;;;;;;;;;5037139;28;20048;-63
2024/01/20 10:14:51;;;;;;;21.73;12.82;;;;;;;;;;5058671;28;20105;-63
2024/01/20 10:17:20;;;;;;;23.52;12.70;;;;;;;;;;5053126;28;20041;-64
2024/01/20 10:19:46;;;;;;;19.02;14.38;;;;;;;;;;5059415;28;20131;-63
2024/01/20 10:22:13;;;;;;;17.77;12.18;;;;;;;;;;5058363;28;20037;-64
2024/01/20 10:24:46;;;;;;;23.92;14.43;;;;;;;;;;5040059;28;20043;-63
2024/01/20 10:27:18;;;;;;;20.92;13.18;;;;;;;;;;5055798;28;20478;-64
2024/01/20 10:29:48;;;;;;;24.13;14.50;;;;;;;;;;5053349;28;20527;-63
2024/01/20 10:32:15;;;;;;;23.23;13.82;;;;;;;;;;5056433;28;20070;-64
2024/01/20 10:34:41;;;;;;;23.17;13.27;;;;;;;;;;5055873;28;20052;-64
2024/01/20 10:37:12;;;;;;;23.65;12.95;;;;;;;;;;5071653;28;20064;-64
2024/01/20 10:39:41;;;;;;;24.35;12.75;;;;;;;;;;5061939;28;20056;-63
2024/01/20 10:42:10;;;;;;;20.33;12.38;;;;;;;;;;5061491;28;20040;-64
2024/01/20 10:44:38;;;;;;;22.02;12.52;;;;;;;;;;5053601;28;20044;-63
2024/01/20 10:47:08;;;;;;;25.67;12.25;;;;;;;;;;5054715;28;20041;-63
2024/01/20 10:49:35;;;;;;;22.95;12.52;;;;;;;;;;5056115;28;20112;-64
2024/01/20 10:52:01;;;;;;;24.67;13.23;;;;;;;;;;5059874;28;20041;-63
2024/01/20 10:54:28;;;;;;;23.92;13.38;;;;;;;;;;5072266;28;20033;-64
2024/01/20 10:56:54;;;;;;;21.77;12.73;;;;;;;;;;5057104;28;20039;-63
2024/01/20 10:59:22;;;;;;;24.10;13.57;;;;;;;;;;5056627;28;20482;-64
2024/01/20 11:01:49;;;;;;;20.08;13.27;;;;;;;;;;5058459;28;20054;-63
2024/01/20 11:04:22;;;;;;;25.45;13.40;;;;;;;;;;5044967;28;20120;-64
2024/01/20 11:06:48;;;;;;;23.10;14.18;;;;;;;;;;5058930;28;20055;-63
2024/01/20 11:09:21;;;;;;;24.52;13.02;;;;;;;;;;5056633;28;20044;-64
2024/01/20 11:12:00;;;;;;;21.67;13.25;;;;;;;;;;5053471;28;20272;-63
2024/01/20 11:14:30;;;;;;;21.98;14.35;;;;;;;;;;5064768;28;20041;-64
2024/01/20 11:16:56;;;;;;;20.80;12.65;;;;;;;;;;5057625;28;20427;-64
2024/01/20 11:19:23;;;;;;;26.23;14.20;;;;;;;;;;5055695;28;20516;-64
2024/01/20 11:21:49;;;;;;;23.63;15.05;;;;;;;;;;5055477;28;20089;-64
2024/01/20 11:24:16;;;;;;;22.60;13.75;;;;;;;;;;5062839;28;20110;-64
2024/01/20 11:26:42;;;;;;;34.15;15.35;;;;;;;;;;5053696;28;20555;-64
2024/01/20 11:29:09;;;;;;;21.02;13.30;;;;;;;;;;5039395;28;20041;-64
2024/01/20 11:31:35;;;;;;;25.95;16.08;;;;;;;;;;5059190;28;20177;-63
2024/01/20 11:34:02;;;;;;;20.00;13.70;;;;;;;;;;5057277;28;20051;-64
2024/01/20 11:36:29;;;;;;;23.00;14.07;;;;;;;;;;5064938;28;20052;-64
2024/01/20 11:38:57;;;;;;;25.85;14.18;;;;;;;;;;5028592;28;20037;-64
2024/01/20 11:41:23;;;;;;;23.90;13.43;;;;;;;;;;5038105;28;20033;-64
2024/01/20 11:43:49;;;;;;;22.63;14.20;;;;;;;;;;5057428;28;20468;-64
2024/01/20 11:46:16;;;;;;;25.33;15.35;;;;;;;;;;5070802;28;20042;-64
2024/01/20 11:48:42;;;;;;;23.05;14.50;;;;;;;;;;5077958;28;20044;-63
2024/01/20 11:51:12;;;;;;;25.25;14.90;;;;;;;;;;5063099;28;20511;-64
2024/01/20 11:53:40;;;;;;;24.55;14.85;;;;;;;;;;5067916;28;20153;-63
2024/01/20 11:56:06;;;;;;;25.10;14.15;;;;;;;;;;5064797;28;20059;-64
2024/01/20 11:58:34;;;;;;;23.10;13.30;;;;;;;;;;5063056;28;20238;-63
2024/01/20 12:01:02;;;;;;;30.13;14.98;;;;;;;;;;5066214;28;20187;-63
2024/01/20 12:03:28;;;;;;;23.38;14.95;;;;;;;;;;5059032;28;20043;-63
2024/01/20 12:05:55;;;;;;;21.42;13.73;;;;;;;;;;5066627;28;20547;-63
2024/01/20 12:08:21;;;;;;;21.30;13.05;;;;;;;;;;5070814;28;20028;-63
2024/01/20 12:10:48;;;;;;;22.00;15.38;;;;;;;;;;5059312;28;20131;-63
2024/01/20 12:13:14;;;;;;;25.35;15.13;;;;;;;;;;5061639;28;20045;-63
2024/01/20 12:15:41;;;;;;;27.50;15.60;;;;;;;;;;5068629;28;20174;-63
2024/01/20 12:18:07;;;;;;;21.88;15.60;;;;;;;;;;5064812;28;20052;-63
2024/01/20 12:20:34;;;;;;;24.15;15.00;;;;;;;;;;5062637;28;20171;-64
2024/01/20 12:23:00;;;;;;;30.83;15.82;;;;;;;;;;5062809;28;20110;-64
2024/01/20 12:25:27;;;;;;;27.13;16.17;;;;;;;;;;5066919;28;20616;-64
2024/01/20 12:27:53;;;;;;;29.02;16.10;;;;;;;;;;5048494;28;20052;-64
2024/01/20 12:30:20;;;;;;;26.75;15.55;;;;;;;;;;5058851;28;20044;-64
2024/01/20 12:32:46;;;;;;;26.52;16.75;;;;;;;;;;5064202;28;20129;-65
2024/01/20 12:35:12;;;;;;;24.50;15.13;;;;;;;;;;5064299;28;20267;-64
2024/01/20 12:37:39;;;;;;;22.77;15.10;;;;;;;;;;5056359;28;20510;-64
2024/01/20 12:40:08;;;;;;;25.65;15.40;;;;;;;;;;5033060;28;20040;-64
2024/01/20 12:42:35;;;;;;;22.85;15.75;;;;;;;;;;5066403;28;20064;-64
2024/01/20 12:45:02;;;;;;;26.48;15.52;;;;;;;;;;5060806;28;20119;-64
2024/01/20 12:47:28;;;;;;;24.77;15.90;;;;;;;;;;5059973;28;20890;-64
2024/01/20 12:49:54;;;;;;;27.77;15.45;;;;;;;;;;5078469;28;20174;-65
2024/01/20 12:52:21;;;;;;;24.23;15.07;;;;;;;;;;5061046;28;20120;-64
2024/01/20 12:54:47;;;;;;;27.48;14.43;;;;;;;;;;5056763;28;20452;-65
2024/01/20 12:57:13;;;;;;;26.17;14.88;;;;;;;;;;5045619;28;20120;-66
2024/01/20 12:59:39;;;;;;;26.55;14.85;;;;;;;;;;5056455;28;20041;-64
2024/01/20 13:02:06;;;;;;;24.90;14.23;;;;;;;;;;5038819;28;20485;-64
2024/01/20 13:04:32;;;;;;;23.08;13.75;;;;;;;;;;5048135;28;20127;-64
2024/01/20 13:06:58;;;;;;;17.48;12.43;;;;;;;;;;5065141;28;20397;-66
2024/01/20 13:09:24;;;;;;;24.20;14.32;;;;;;;;;;5060874;28;20056;-64
2024/01/20 13:11:51;;;;;;;24.42;14.52;;;;;;;;;;5068898;28;20036;-65
2024/01/20 13:14:17;;;;;;;22.42;12.80;;;;;;;;;;5055875;28;20075;-65
2024/01/20 13:16:43;;;;;;;22.27;13.13;;;;;;;;;;5066657;28;20280;-65
2024/01/20 13:19:09;;;;;;;22.40;13.60;;;;;;;;;;5064865;28;20036;-64
2024/01/20 13:21:35;;;;;;;28.92;14.15;;;;;;;;;;5040700;28;20051;-64
2024/01/20 13:24:01;;;;;;;21.23;12.73;;;;;;;;;;5058794;28;20131;-64
2024/01/20 13:26:27;;;;;;;23.50;12.75;;;;;;;;;;5062517;28;20063;-64
2024/01/20 13:28:54;;;;;;;19.35;12.23;;;;;;;;;;5074206;28;20567;-64
2024/01/20 13:31:20;;;;;;;19.45;11.75;;;;;;;;;;5066969;28;20048;-63
2024/01/20 13:33:46;;;;;;;24.45;13.63;;;;;;;;;;5031802;28;20063;-63
2024/01/20 13:36:13;;;;;;;16.92;11.25;;;;;;;;;;5060566;28;20102;-63
2024/01/20 13:38:39;;;;;;;19.60;11.10;;;;;;;;;;5064146;28;20076;-63
2024/01/20 13:41:05;;;;;;;20.60;11.20;;;;;;;;;;5074681;28;20527;-65
2024/01/20 13:43:32;;;;;;;19.00;11.93;;;;;;;;;;5065586;28;20475;-63
2024/01/20 13:45:58;;;;;;;17.02;11.18;;;;;;;;;;5061481;28;20044;-63
2024/01/20 13:48:24;;;;;;;18.75;10.93;;;;;;;;;;5064427;28;20572;-63
2024/01/20 13:50:51;;;;;;;30.80;12.90;;;;;;;;;;5062703;28;20529;-64
2024/01/20 13:53:17;;;;;;;19.02;11.90;;;;;;;;;;5075249;28;20033;-63
2024/01/20 13:55:43;;;;;;;20.95;11.00;;;;;;;;;;5057747;28;20044;-64
2024/01/20 13:58:09;;;;;;;17.67;11.77;;;;;;;;;;5060638;28;20039;-63
2024/01/20 14:00:35;;;;;;;17.75;10.80;;;;;;;;;;5062260;28;20041;-64
2024/01/20 14:03:01;;;;;;;17.05;10.77;;;;;;;;;;5066069;28;20036;-63
2024/01/20 14:05:28;;;;;;;19.50;11.15;;;;;;;;;;5074256;28;20386;-63
2024/01/20 14:07:54;;;;;;;15.88;9.48;;;;;;;;;;5024157;28;20313;-64
2024/01/20 14:10:20;;;;;;;15.98;9.77;;;;;;;;;;5062069;28;20095;-64
2024/01/20 14:12:46;;;;;;;20.50;10.25;;;;;;;;;;5061986;28;20047;-63
2024/01/20 14:15:12;;;;;;;17.70;8.90;;;;;;;;;;5060876;28;20044;-64
2024/01/20 14:17:38;;;;;;;18.58;10.07;;;;;;;;;;5065738;28;20036;-64
2024/01/20 14:20:05;;;;;;;16.60;9.32;;;;;;;;;;5062969;28;20060;-64
2024/01/20 14:22:32;;;;;;;19.05;9.07;;;;;;;;;;5062637;28;20040;-63